Time;durP1;ratioP1;P1;durP2;ratioP2;P2;SDS_P1;SDS_P2;PMS_P1;PMS_P2;Temp;Humidity;BMP_temperature;BMP_pressure;BME280_temperature;BME280_humidity;BME280_pressure;Samples;Min_cycle;Max_cycle;Signal;HPM_P1;HPM_P2
2023/04/05 00:00:31;;;;;;;;;;;7.30;94.90;;;;;;5091033;28;19908;-73
2023/04/05 00:02:58;;;;;;;;;;;7.30;95.10;;;;;;5092247;28;19908;-74
2023/04/05 00:05:33;;;;;;;;;;;7.30;95.10;;;;;;5091862;28;20454;-74
2023/04/05 00:08:02;;;;;;;;;;;7.30;95.20;;;;;;5092731;28;19913;-75
2023/04/05 00:10:29;;;;;;;;;;;7.30;95.20;;;;;;5090729;28;19940;-74
2023/04/05 00:12:55;;;;;;;;;;;7.30;95.30;;;;;;5093653;28;19923;-75
2023/04/05 00:15:21;;;;;;;;;;;7.30;95.20;;;;;;5093462;28;20158;-74
2023/04/05 00:17:47;;;;;;;;;;;7.30;95.20;;;;;;5091843;28;19908;-74
2023/04/05 00:20:12;;;;;;;;;;;7.30;95.30;;;;;;5091938;28;19999;-74
2023/04/05 00:22:40;;;;;;;;;;;7.30;95.40;;;;;;5092102;28;20025;-74
2023/04/05 00:25:06;;;;;;;;;;;7.30;95.40;;;;;;5093619;28;19912;-74
2023/04/05 00:27:32;;;;;;;;;;;7.20;95.70;;;;;;5092694;28;19908;-75
2023/04/05 00:29:57;;;;;;;;;;;7.20;95.40;;;;;;5094968;28;20306;-75
2023/04/05 00:32:23;;;;;;;;;;;7.30;95.60;;;;;;5094949;28;19947;-74
2023/04/05 00:34:49;;;;;;;;;;;7.30;95.40;;;;;;5094483;28;19915;-74
2023/04/05 00:37:15;;;;;;;;;;;7.30;95.50;;;;;;5093027;28;19915;-75
2023/04/05 00:39:41;;;;;;;;;;;7.20;95.50;;;;;;5094199;28;19999;-75
2023/04/05 00:42:07;;;;;;;;;;;7.20;95.60;;;;;;5093402;28;19955;-75
2023/04/05 00:44:33;;;;;;;;;;;7.20;95.30;;;;;;5093858;28;19970;-74
2023/04/05 00:47:02;;;;;;;;;;;7.30;95.60;;;;;;5096339;28;20383;-73
2023/04/05 00:49:28;;;;;;;;;;;7.30;95.50;;;;;;5096278;28;20305;-74
2023/04/05 00:51:55;;;;;;;;;;;7.30;95.70;;;;;;5095462;28;19968;-74
2023/04/05 00:54:21;;;;;;;;;;;7.20;95.50;;;;;;5094984;28;19908;-75
2023/04/05 00:56:46;;;;;;;;;;;7.20;95.40;;;;;;5094884;28;20012;-75
2023/04/05 00:59:12;;;;;;;;;;;7.10;95.60;;;;;;5092406;28;19908;-74
2023/04/05 01:01:39;;;;;;;;;;;7.10;95.90;;;;;;5092864;28;19912;-74
2023/04/05 01:04:06;;;;;;;;;;;7.10;96.20;;;;;;5092437;28;19947;-75
2023/04/05 01:06:37;;;;;;;;;;;7.00;95.90;;;;;;5094005;28;19978;-74
2023/04/05 01:09:22;;;;;;;;;;;6.90;96.00;;;;;;5092837;28;19912;-74
2023/04/05 01:11:48;;;;;;;;;;;6.80;96.00;;;;;;5093661;28;20431;-75
2023/04/05 01:14:14;;;;;;;;;;;6.80;96.10;;;;;;5092160;28;20000;-74
2023/04/05 01:16:39;;;;;;;;;;;6.80;96.30;;;;;;5094125;28;19936;-75
2023/04/05 01:19:08;;;;;;;;;;;6.80;96.60;;;;;;5093530;28;19915;-77
2023/04/05 01:21:36;;;;;;;;;;;6.90;96.80;;;;;;5093660;28;20018;-75
2023/04/05 01:24:29;;;;;;;;;;;6.80;96.60;;;;;;5093336;28;19987;-77
2023/04/05 01:27:01;;;;;;;;;;;6.80;96.80;;;;;;5089460;28;19966;-74
2023/04/05 01:29:34;;;;;;;;;;;6.80;96.60;;;;;;5094518;28;19908;-75
2023/04/05 01:32:02;;;;;;;;;;;6.80;96.80;;;;;;5096233;28;19908;-75
2023/04/05 01:34:28;;;;;;;;;;;6.70;96.70;;;;;;5096120;28;19908;-74
2023/04/05 01:36:56;;;;;;;;;;;6.70;96.90;;;;;;5096048;28;20027;-75
2023/04/05 01:39:22;;;;;;;;;;;6.70;97.00;;;;;;5096194;28;19982;-74
2023/04/05 01:41:48;;;;;;;;;;;6.70;97.10;;;;;;5097581;28;19908;-73
2023/04/05 01:44:13;;;;;;;;;;;6.70;97.00;;;;;;5095915;28;19912;-74
2023/04/05 01:46:39;;;;;;;;;;;6.70;97.00;;;;;;5096080;28;19916;-74
2023/04/05 01:49:05;;;;;;;;;;;6.70;97.10;;;;;;5096404;28;19912;-79
2023/04/05 01:51:31;;;;;;;;;;;6.60;97.00;;;;;;5097394;28;19908;-74
2023/04/05 01:53:57;;;;;;;;;;;6.60;97.10;;;;;;5096522;28;19914;-74
2023/04/05 01:56:22;;;;;;;;;;;6.50;97.20;;;;;;5095535;28;19995;-74
2023/04/05 01:58:48;;;;;;;;;;;6.50;97.30;;;;;;5096728;28;20007;-73
2023/04/05 02:01:13;;;;;;;;;;;6.50;97.40;;;;;;5097220;28;19965;-74
2023/04/05 02:03:39;;;;;;;;;;;6.40;97.50;;;;;;5096324;28;19973;-74
2023/04/05 02:06:05;;;;;;;;;;;6.40;98.00;;;;;;5095831;28;20285;-74
2023/04/05 02:08:31;;;;;;;;;;;6.50;97.70;;;;;;5095736;28;19908;-74
2023/04/05 02:10:56;;;;;;;;;;;6.60;97.70;;;;;;5095478;28;19908;-73
2023/04/05 02:13:22;;;;;;;;;;;6.60;97.90;;;;;;5095576;28;19908;-75
2023/04/05 02:15:49;;;;;;;;;;;6.60;98.20;;;;;;5096675;28;19956;-74
2023/04/05 02:18:14;;;;;;;;;;;6.60;97.80;;;;;;5096615;28;19974;-75
2023/04/05 02:20:40;;;;;;;;;;;6.50;97.90;;;;;;5096297;28;20370;-75
2023/04/05 02:23:07;;;;;;;;;;;6.40;98.00;;;;;;5096176;28;19916;-74
2023/04/05 02:25:33;;;;;;;;;;;6.40;98.00;;;;;;5096137;28;20027;-75
2023/04/05 02:27:58;;;;;;;;;;;6.30;98.30;;;;;;5094611;28;19948;-75
2023/04/05 02:30:27;;;;;;;;;;;6.20;98.40;;;;;;5096431;28;20324;-75
2023/04/05 02:32:54;;;;;;;;;;;6.10;98.70;;;;;;5096489;28;20010;-74
2023/04/05 02:35:20;;;;;;;;;;;6.10;98.80;;;;;;5095161;28;19915;-75
2023/04/05 02:37:46;;;;;;;;;;;6.20;98.80;;;;;;5095862;28;19908;-75
2023/04/05 02:40:13;;;;;;;;;;;6.10;98.80;;;;;;5094864;28;20385;-73
2023/04/05 02:42:39;;;;;;;;;;;6.10;99.10;;;;;;5096001;28;19912;-77
2023/04/05 02:45:07;;;;;;;;;;;6.00;99.10;;;;;;5093888;28;19913;-74
2023/04/05 02:47:33;;;;;;;;;;;6.00;99.10;;;;;;5095989;28;19923;-74
2023/04/05 02:49:58;;;;;;;;;;;6.00;99.20;;;;;;5095542;28;20362;-76
2023/04/05 02:52:24;;;;;;;;;;;5.90;99.40;;;;;;5095758;28;19950;-73
2023/04/05 02:54:50;;;;;;;;;;;5.90;99.50;;;;;;5094911;28;19909;-74
2023/04/05 02:57:15;;;;;;;;;;;5.90;99.60;;;;;;5094987;28;20003;-74
2023/04/05 02:59:41;;;;;;;;;;;5.90;99.50;;;;;;5095815;28;19916;-77
2023/04/05 03:02:08;;;;;;;;;;;5.80;99.80;;;;;;5094986;28;19908;-75
2023/04/05 03:04:34;;;;;;;;;;;5.80;99.90;;;;;;5094319;28;19923;-75
2023/04/05 03:07:01;;;;;;;;;;;5.80;99.90;;;;;;5094598;28;20296;-79
2023/04/05 03:09:32;;;;;;;;;;;5.70;99.90;;;;;;5095972;28;19915;-74
2023/04/05 03:12:02;;;;;;;;;;;5.70;99.90;;;;;;5096394;28;19935;-74
2023/04/05 03:14:30;;;;;;;;;;;5.60;99.90;;;;;;5095367;28;19984;-75
2023/04/05 03:16:56;;;;;;;;;;;5.60;99.90;;;;;;5094128;28;19984;-74
2023/04/05 03:19:23;;;;;;;;;;;5.60;99.90;;;;;;5095687;28;19908;-77
2023/04/05 03:21:48;;;;;;;;;;;5.50;99.90;;;;;;5094803;28;19916;-73
2023/04/05 03:24:15;;;;;;;;;;;5.60;99.90;;;;;;5093109;28;19958;-74
2023/04/05 03:26:42;;;;;;;;;;;5.60;99.90;;;;;;5094761;28;19943;-74
2023/04/05 03:29:08;;;;;;;;;;;5.60;99.90;;;;;;5093640;28;20262;-74
2023/04/05 03:31:34;;;;;;;;;;;5.60;99.90;;;;;;5095049;28;19919;-73
2023/04/05 03:33:59;;;;;;;;;;;5.50;99.90;;;;;;5094652;28;19915;-74
2023/04/05 03:36:27;;;;;;;;;;;5.60;99.90;;;;;;5094894;28;19908;-76
2023/04/05 03:38:54;;;;;;;;;;;5.50;99.90;;;;;;5093834;28;19919;-73
2023/04/05 03:41:20;;;;;;;;;;;5.50;99.90;;;;;;5094838;28;19947;-74
2023/04/05 03:43:47;;;;;;;;;;;5.50;99.90;;;;;;5092959;28;20029;-74
2023/04/05 03:46:13;;;;;;;;;;;5.40;99.90;;;;;;5094707;28;20426;-73
2023/04/05 03:48:39;;;;;;;;;;;5.40;99.90;;;;;;5094334;28;19912;-74
2023/04/05 03:51:05;;;;;;;;;;;5.40;99.90;;;;;;5093359;28;19908;-74
2023/04/05 03:53:31;;;;;;;;;;;5.30;99.90;;;;;;5092584;28;19914;-74
2023/04/05 03:55:57;;;;;;;;;;;5.30;99.90;;;;;;5094181;28;19908;-74
2023/04/05 03:58:24;;;;;;;;;;;5.30;99.90;;;;;;5092826;28;19923;-75
2023/04/05 04:00:51;;;;;;;;;;;5.20;99.90;;;;;;5094313;28;19908;-75
2023/04/05 04:03:17;;;;;;;;;;;5.30;99.90;;;;;;5094622;28;19908;-74
2023/04/05 04:05:43;;;;;;;;;;;5.30;99.90;;;;;;5093014;28;20336;-75
2023/04/05 04:08:09;;;;;;;;;;;5.30;99.90;;;;;;5093561;28;19919;-75
2023/04/05 04:10:35;;;;;;;;;;;5.30;99.90;;;;;;5094854;28;19908;-74
2023/04/05 04:13:01;;;;;;;;;;;5.30;99.90;;;;;;5094169;28;20258;-74
2023/04/05 04:15:26;;;;;;;;;;;5.20;99.90;;;;;;5094379;28;19920;-75
2023/04/05 04:17:52;;;;;;;;;;;5.20;99.90;;;;;;5094293;28;19908;-73
2023/04/05 04:20:18;;;;;;;;;;;5.10;99.90;;;;;;5094416;28;19908;-76
2023/04/05 04:22:44;;;;;;;;;;;5.10;99.90;;;;;;5093942;28;19912;-72
2023/04/05 04:25:11;;;;;;;;;;;5.00;99.90;;;;;;5093662;28;20298;-73
2023/04/05 04:27:40;;;;;;;;;;;5.00;99.90;;;;;;5095115;28;19934;-74
2023/04/05 04:30:10;;;;;;;;;;;5.00;99.90;;;;;;5093731;28;20370;-73
2023/04/05 04:32:52;;;;;;;;;;;4.90;99.90;;;;;;5094650;28;20301;-74
2023/04/05 04:35:19;;;;;;;;;;;4.90;99.90;;;;;;5093569;28;19909;-74
2023/04/05 04:37:51;;;;;;;;;;;4.90;99.90;;;;;;5092845;28;19995;-73
2023/04/05 04:40:17;;;;;;;;;;;4.80;99.90;;;;;;5094677;28;20366;-74
2023/04/05 04:42:45;;;;;;;;;;;4.80;99.90;;;;;;5093002;28;19960;-76
2023/04/05 04:45:14;;;;;;;;;;;4.80;99.90;;;;;;5094220;28;19912;-74
2023/04/05 04:47:41;;;;;;;;;;;4.80;99.90;;;;;;5093073;28;19908;-74
2023/04/05 04:50:08;;;;;;;;;;;4.70;99.90;;;;;;5092505;28;19908;-77
2023/04/05 04:52:34;;;;;;;;;;;4.70;99.90;;;;;;5093272;28;19914;-75
2023/04/05 04:55:02;;;;;;;;;;;4.70;99.90;;;;;;5092863;28;19994;-73
2023/04/05 04:57:28;;;;;;;;;;;4.70;99.90;;;;;;5094223;28;20007;-73
2023/04/05 04:59:53;;;;;;;;;;;4.70;99.90;;;;;;5094284;28;19985;-73
2023/04/05 05:02:27;;;;;;;;;;;4.70;99.90;;;;;;5092409;28;19987;-72
2023/04/05 05:04:53;;;;;;;;;;;4.70;99.90;;;;;;5091611;28;19912;-73
2023/04/05 05:07:19;;;;;;;;;;;4.70;99.90;;;;;;5095531;28;19919;-74
2023/04/05 05:09:45;;;;;;;;;;;4.60;99.90;;;;;;5097897;28;19914;-73
2023/04/05 05:12:11;;;;;;;;;;;4.50;99.90;;;;;;5096416;28;20368;-74
2023/04/05 05:14:36;;;;;;;;;;;4.50;99.90;;;;;;5098129;28;19908;-73
2023/04/05 05:17:04;;;;;;;;;;;4.50;99.90;;;;;;5096403;28;19908;-74
2023/04/05 05:19:30;;;;;;;;;;;4.50;99.90;;;;;;5097662;28;19950;-75
2023/04/05 05:21:56;;;;;;;;;;;4.50;99.90;;;;;;5097672;28;20397;-73
2023/04/05 05:24:22;;;;;;;;;;;4.50;99.90;;;;;;5097733;28;19916;-74
2023/04/05 05:26:47;;;;;;;;;;;4.50;99.90;;;;;;5096596;28;20356;-76
2023/04/05 05:29:13;;;;;;;;;;;4.50;99.90;;;;;;5096327;28;19908;-73
2023/04/05 05:31:39;;;;;;;;;;;4.50;99.90;;;;;;5096290;28;19912;-74
2023/04/05 05:34:05;;;;;;;;;;;4.50;99.90;;;;;;5097176;28;20370;-74
2023/04/05 05:36:31;;;;;;;;;;;4.50;99.90;;;;;;5097134;28;19915;-74
2023/04/05 05:38:56;;;;;;;;;;;4.50;99.90;;;;;;5097306;28;19971;-72
2023/04/05 05:41:22;;;;;;;;;;;4.50;99.90;;;;;;5095870;28;19923;-75
2023/04/05 05:43:48;;;;;;;;;;;4.50;99.90;;;;;;5097075;28;20101;-74
2023/04/05 05:46:13;;;;;;;;;;;4.60;99.90;;;;;;5095881;28;19958;-73
2023/04/05 05:48:40;;;;;;;;;;;4.60;99.90;;;;;;5097552;28;19995;-73
2023/04/05 05:51:08;;;;;;;;;;;4.60;99.90;;;;;;5096738;28;20359;-73
2023/04/05 05:53:35;;;;;;;;;;;4.60;99.90;;;;;;5096830;28;20277;-74
2023/04/05 05:56:01;;;;;;;;;;;4.70;99.90;;;;;;5095599;28;20370;-73
2023/04/05 05:58:26;;;;;;;;;;;4.70;99.90;;;;;;5096618;28;19908;-74
2023/04/05 06:00:55;;;;;;;;;;;4.70;99.90;;;;;;5096633;28;20003;-74
2023/04/05 06:03:22;;;;;;;;;;;4.70;99.90;;;;;;5094689;28;19908;-72
2023/04/05 06:05:52;;;;;;;;;;;4.60;99.90;;;;;;5096250;28;19919;-77
2023/04/05 06:08:17;;;;;;;;;;;4.60;99.90;;;;;;5096422;28;19954;-72
2023/04/05 06:10:43;;;;;;;;;;;4.70;99.90;;;;;;5095458;28;19912;-74
2023/04/05 06:13:09;;;;;;;;;;;4.80;99.90;;;;;;5096712;28;19912;-74
2023/04/05 06:15:35;;;;;;;;;;;4.90;99.90;;;;;;5096092;28;19915;-74
2023/04/05 06:18:00;;;;;;;;;;;5.00;99.90;;;;;;5096174;28;19908;-74
2023/04/05 06:20:26;;;;;;;;;;;5.00;99.90;;;;;;5096653;28;19908;-73
2023/04/05 06:22:52;;;;;;;;;;;5.10;99.90;;;;;;5095326;28;20373;-73
2023/04/05 06:25:17;;;;;;;;;;;5.10;99.90;;;;;;5095697;28;20011;-74
2023/04/05 06:27:43;;;;;;;;;;;5.20;99.90;;;;;;5096301;28;20435;-74
2023/04/05 06:30:09;;;;;;;;;;;5.10;99.90;;;;;;5096244;28;19965;-73
2023/04/05 06:32:35;;;;;;;;;;;5.20;99.90;;;;;;5096287;28;19908;-73
2023/04/05 06:35:02;;;;;;;;;;;5.20;99.90;;;;;;5095776;28;19931;-73
2023/04/05 06:37:28;;;;;;;;;;;5.20;99.90;;;;;;5096171;28;19957;-73
2023/04/05 06:39:54;;;;;;;;;;;5.40;99.90;;;;;;5094492;28;19919;-74
2023/04/05 06:42:20;;;;;;;;;;;5.50;99.90;;;;;;5095186;28;19908;-74
2023/04/05 06:44:45;;;;;;;;;;;5.60;99.90;;;;;;5093801;28;20409;-74
2023/04/05 06:47:11;;;;;;;;;;;5.60;99.90;;;;;;5094042;28;19915;-74
2023/04/05 06:49:37;;;;;;;;;;;5.70;99.90;;;;;;5094134;28;19919;-74
2023/04/05 06:52:04;;;;;;;;;;;5.80;99.90;;;;;;5095944;28;19917;-73
2023/04/05 06:54:31;;;;;;;;;;;5.80;99.90;;;;;;5095643;28;19908;-74
2023/04/05 06:56:57;;;;;;;;;;;5.90;99.90;;;;;;5095850;28;19915;-75
2023/04/05 06:59:23;;;;;;;;;;;5.90;99.90;;;;;;5094924;28;19908;-74
2023/04/05 07:01:48;;;;;;;;;;;5.90;99.90;;;;;;5093953;28;19977;-74
2023/04/05 07:04:14;;;;;;;;;;;6.00;99.90;;;;;;5093543;28;20347;-75
2023/04/05 07:06:40;;;;;;;;;;;6.00;99.90;;;;;;5093989;28;20423;-74
2023/04/05 07:09:06;;;;;;;;;;;6.00;99.90;;;;;;5092466;28;19909;-74
2023/04/05 07:11:31;;;;;;;;;;;6.10;99.90;;;;;;5092530;28;20377;-74
2023/04/05 07:14:00;;;;;;;;;;;6.20;99.90;;;;;;5093655;28;20007;-75
2023/04/05 07:16:26;;;;;;;;;;;6.10;99.90;;;;;;5095154;28;20011;-74
2023/04/05 07:18:52;;;;;;;;;;;6.10;99.90;;;;;;5095192;28;19974;-76
2023/04/05 07:21:17;;;;;;;;;;;6.20;99.90;;;;;;5093399;28;19915;-74
2023/04/05 07:23:43;;;;;;;;;;;6.30;99.90;;;;;;5094515;28;20309;-74
2023/04/05 07:26:09;;;;;;;;;;;6.50;99.90;;;;;;5094503;28;19912;-74
2023/04/05 07:28:35;;;;;;;;;;;6.60;99.90;;;;;;5094598;28;20346;-74
2023/04/05 07:31:01;;;;;;;;;;;6.60;99.90;;;;;;5094575;28;19908;-73
2023/04/05 07:33:27;;;;;;;;;;;6.60;99.90;;;;;;5093283;28;19908;-73
2023/04/05 07:35:53;;;;;;;;;;;6.60;99.90;;;;;;5093637;28;20347;-74
2023/04/05 07:38:20;;;;;;;;;;;6.80;99.90;;;;;;5093657;28;19956;-75
2023/04/05 07:40:47;;;;;;;;;;;6.90;99.90;;;;;;5093941;28;19908;-77
2023/04/05 07:43:12;;;;;;;;;;;6.90;99.90;;;;;;5093463;28;20362;-74
2023/04/05 07:45:38;;;;;;;;;;;7.10;99.90;;;;;;5093223;28;19945;-74
2023/04/05 07:48:04;;;;;;;;;;;7.00;99.90;;;;;;5094206;28;19908;-74
2023/04/05 07:50:30;;;;;;;;;;;7.00;99.90;;;;;;5094197;28;19908;-73
2023/04/05 07:52:55;;;;;;;;;;;7.00;99.90;;;;;;5093225;28;20391;-73
2023/04/05 07:55:21;;;;;;;;;;;7.00;99.90;;;;;;5095560;28;19995;-74
2023/04/05 07:57:47;;;;;;;;;;;7.00;99.90;;;;;;5095552;28;20381;-79
2023/04/05 08:00:13;;;;;;;;;;;7.10;99.90;;;;;;5097761;28;19908;-73
2023/04/05 08:02:39;;;;;;;;;;;7.10;99.90;;;;;;5098374;28;20294;-75
2023/04/05 08:05:05;;;;;;;;;;;7.20;99.90;;;;;;5094753;28;19912;-74
2023/04/05 08:07:30;;;;;;;;;;;7.20;99.70;;;;;;5093110;28;19915;-73
2023/04/05 08:09:58;;;;;;;;;;;7.10;99.60;;;;;;5092616;28;20334;-73
2023/04/05 08:12:24;;;;;;;;;;;7.10;99.40;;;;;;5094869;28;19908;-74
2023/04/05 08:14:50;;;;;;;;;;;7.00;99.20;;;;;;5093315;28;19908;-75
2023/04/05 08:17:16;;;;;;;;;;;7.00;99.00;;;;;;5095336;28;19930;-75
2023/04/05 08:19:42;;;;;;;;;;;7.10;99.20;;;;;;5095623;28;19908;-75
2023/04/05 08:22:08;;;;;;;;;;;7.20;98.80;;;;;;5095326;28;19914;-74
2023/04/05 08:24:33;;;;;;;;;;;7.20;98.40;;;;;;5094856;28;19915;-74
2023/04/05 08:26:59;;;;;;;;;;;7.30;98.70;;;;;;5095075;28;19908;-73
2023/04/05 08:29:25;;;;;;;;;;;7.40;98.90;;;;;;5092694;28;20008;-73
2023/04/05 08:31:51;;;;;;;;;;;7.60;98.90;;;;;;5094691;28;19916;-73
2023/04/05 08:34:16;;;;;;;;;;;7.70;98.00;;;;;;5094101;28;19912;-73
2023/04/05 08:36:42;;;;;;;;;;;7.50;97.60;;;;;;5096744;28;19908;-74
2023/04/05 08:39:09;;;;;;;;;;;7.60;98.00;;;;;;5096588;28;19908;-72
2023/04/05 08:41:36;;;;;;;;;;;7.60;98.00;;;;;;5099560;28;19930;-72
2023/04/05 08:44:02;;;;;;;;;;;7.80;97.70;;;;;;5098924;28;19916;-73
2023/04/05 08:46:33;;;;;;;;;;;7.80;97.60;;;;;;5096539;28;19934;-73
2023/04/05 08:49:00;;;;;;;;;;;7.70;97.30;;;;;;5101482;28;19916;-74
2023/04/05 08:51:26;;;;;;;;;;;7.70;97.30;;;;;;5100874;28;19982;-73
2023/04/05 08:53:52;;;;;;;;;;;7.60;97.80;;;;;;5101118;28;19909;-73
2023/04/05 08:56:20;;;;;;;;;;;7.80;97.90;;;;;;5100499;28;20050;-72
2023/04/05 08:58:48;;;;;;;;;;;8.00;97.60;;;;;;5098020;28;20370;-74
2023/04/05 09:01:15;;;;;;;;;;;8.00;97.20;;;;;;5099350;28;20005;-74
2023/04/05 09:03:42;;;;;;;;;;;8.10;97.60;;;;;;5098251;28;20177;-74
2023/04/05 09:06:08;;;;;;;;;;;8.20;97.40;;;;;;5097843;28;19919;-74
2023/04/05 09:08:34;;;;;;;;;;;8.30;97.70;;;;;;5099357;28;19934;-73
2023/04/05 09:11:00;;;;;;;;;;;8.40;97.50;;;;;;5099688;28;19998;-74
2023/04/05 09:13:26;;;;;;;;;;;8.50;96.90;;;;;;5100543;28;19908;-73
2023/04/05 09:15:51;;;;;;;;;;;8.40;96.20;;;;;;5100410;28;19912;-74
2023/04/05 09:18:17;;;;;;;;;;;8.20;96.40;;;;;;5099279;28;19915;-73
2023/04/05 09:20:42;;;;;;;;;;;8.20;96.70;;;;;;5098042;28;19908;-74
2023/04/05 09:23:08;;;;;;;;;;;8.20;96.10;;;;;;5098003;28;20105;-74
2023/04/05 09:25:37;;;;;;;;;;;8.40;96.70;;;;;;5099250;28;19913;-74
2023/04/05 09:28:03;;;;;;;;;;;8.40;96.90;;;;;;5098862;28;19909;-74
2023/04/05 09:30:29;;;;;;;;;;;8.50;96.50;;;;;;5100201;28;20006;-74
2023/04/05 09:32:55;;;;;;;;;;;8.60;96.20;;;;;;5100107;28;19943;-74
2023/04/05 09:35:21;;;;;;;;;;;8.60;96.10;;;;;;5098555;28;19912;-74
2023/04/05 09:37:54;;;;;;;;;;;8.70;95.80;;;;;;5098784;28;19908;-74
2023/04/05 09:40:20;;;;;;;;;;;8.80;96.50;;;;;;5100614;28;20006;-73
2023/04/05 09:42:46;;;;;;;;;;;9.00;96.10;;;;;;5100453;28;19935;-73
2023/04/05 09:45:12;;;;;;;;;;;8.90;94.90;;;;;;5097570;28;19912;-74
2023/04/05 09:47:38;;;;;;;;;;;8.80;94.40;;;;;;5097892;28;20010;-72
2023/04/05 09:50:13;;;;;;;;;;;8.90;95.50;;;;;;5098125;28;20061;-74
2023/04/05 09:52:38;;;;;;;;;;;8.90;94.10;;;;;;5096801;28;19957;-73
2023/04/05 09:55:06;;;;;;;;;;;8.90;94.80;;;;;;5096256;28;19908;-73
2023/04/05 09:57:38;;;;;;;;;;;8.90;94.40;;;;;;5095831;28;20426;-74
2023/04/05 10:00:04;;;;;;;;;;;8.80;94.40;;;;;;5095078;28;19955;-78
2023/04/05 10:02:37;;;;;;;;;;;8.80;94.60;;;;;;5095697;28;20462;-73
2023/04/05 10:05:06;;;;;;;;;;;8.70;94.40;;;;;;5096639;28;19912;-74
2023/04/05 10:07:32;;;;;;;;;;;8.80;94.70;;;;;;5096813;28;19909;-74
2023/04/05 10:09:58;;;;;;;;;;;9.00;95.30;;;;;;5095470;28;19908;-76
2023/04/05 10:12:27;;;;;;;;;;;9.10;94.30;;;;;;5095505;28;20054;-76
2023/04/05 10:14:56;;;;;;;;;;;9.10;94.20;;;;;;5099750;28;19919;-72
2023/04/05 10:17:33;;;;;;;;;;;9.10;94.10;;;;;;5098463;28;19936;-74
2023/04/05 10:20:08;;;;;;;;;;;9.10;94.80;;;;;;5096733;28;20451;-74
2023/04/05 10:22:43;;;;;;;;;;;9.30;94.90;;;;;;5096822;28;19908;-74
2023/04/05 10:25:19;;;;;;;;;;;9.50;94.80;;;;;;5096063;28;19931;-74
2023/04/05 10:27:46;;;;;;;;;;;9.50;94.10;;;;;;5096898;28;19908;-74
2023/04/05 10:30:12;;;;;;;;;;;9.50;93.70;;;;;;5094479;28;19908;-74
2023/04/05 10:33:02;;;;;;;;;;;9.60;93.40;;;;;;5094998;28;20010;-74
2023/04/05 10:35:31;;;;;;;;;;;9.80;93.30;;;;;;5096135;28;19909;-78
2023/04/05 10:38:12;;;;;;;;;;;9.90;92.50;;;;;;5095934;28;19912;-74
2023/04/05 10:40:41;;;;;;;;;;;9.80;93.30;;;;;;5095607;28;19914;-72
2023/04/05 10:43:11;;;;;;;;;;;10.00;93.00;;;;;;5094483;28;19915;-74
2023/04/05 10:45:37;;;;;;;;;;;10.00;92.50;;;;;;5095170;28;20003;-74
2023/04/05 10:48:09;;;;;;;;;;;10.10;92.50;;;;;;5096274;28;19947;-74
2023/04/05 10:50:35;;;;;;;;;;;10.20;92.40;;;;;;5078141;28;19923;-74
2023/04/05 10:53:01;;;;;;;;;;;10.20;92.00;;;;;;5094768;28;19908;-74
2023/04/05 10:55:28;;;;;;;;;;;10.10;91.50;;;;;;5095636;28;19908;-74
2023/04/05 10:57:54;;;;;;;;;;;10.00;91.40;;;;;;5093805;28;19919;-76
2023/04/05 11:00:21;;;;;;;;;;;9.90;90.60;;;;;;5095893;28;20400;-74
2023/04/05 11:02:47;;;;;;;;;;;9.80;91.40;;;;;;5094151;28;20015;-73
2023/04/05 11:05:30;;;;;;;;;;;9.80;91.90;;;;;;5093053;28;19913;-73
2023/04/05 11:07:58;;;;;;;;;;;9.90;91.40;;;;;;5095385;28;19954;-75
2023/04/05 11:10:25;;;;;;;;;;;10.00;92.20;;;;;;5094646;28;19908;-74
2023/04/05 11:12:51;;;;;;;;;;;10.00;91.20;;;;;;5092940;28;20339;-73
2023/04/05 11:15:32;;;;;;;;;;;10.10;91.90;;;;;;5094641;28;19915;-76
2023/04/05 11:18:06;;;;;;;;;;;10.30;91.60;;;;;;5095340;28;19912;-73
2023/04/05 11:20:43;;;;;;;;;;;10.40;91.40;;;;;;5093256;28;19908;-77
2023/04/05 11:23:09;;;;;;;;;;;10.50;91.30;;;;;;5093752;28;19935;-74
2023/04/05 11:25:41;;;;;;;;;;;10.60;91.70;;;;;;5095064;28;19912;-74
2023/04/05 11:28:10;;;;;;;;;;;10.70;90.50;;;;;;5094934;28;19934;-74
2023/04/05 11:30:46;;;;;;;;;;;10.70;90.80;;;;;;5095365;28;19951;-73
2023/04/05 11:33:31;;;;;;;;;;;10.80;90.60;;;;;;5095174;28;19991;-75
2023/04/05 11:36:01;;;;;;;;;;;10.80;90.50;;;;;;5093673;28;19916;-74
2023/04/05 11:38:27;;;;;;;;;;;10.80;90.60;;;;;;5091528;28;19923;-74
2023/04/05 11:41:04;;;;;;;;;;;10.90;91.30;;;;;;5092830;28;19912;-74
2023/04/05 11:43:30;;;;;;;;;;;10.90;90.80;;;;;;5092265;28;20428;-74
2023/04/05 11:45:55;;;;;;;;;;;11.00;90.90;;;;;;5092554;28;20046;-74
2023/04/05 11:48:21;;;;;;;;;;;10.90;91.00;;;;;;5091813;28;19909;-74
2023/04/05 11:50:49;;;;;;;;;;;11.00;91.70;;;;;;5092581;28;20393;-75
2023/04/05 11:53:16;;;;;;;;;;;11.10;90.80;;;;;;5095181;28;20002;-74
2023/04/05 11:55:46;;;;;;;;;;;11.10;90.40;;;;;;5092843;28;19961;-74
2023/04/05 11:58:12;;;;;;;;;;;11.20;91.30;;;;;;5093278;28;19907;-74
2023/04/05 12:00:38;;;;;;;;;;;11.30;90.60;;;;;;5094550;28;19931;-75
2023/04/05 12:03:03;;;;;;;;;;;11.20;90.00;;;;;;5092879;28;20397;-74
2023/04/05 12:05:47;;;;;;;;;;;11.20;90.20;;;;;;5094269;28;19948;-73
2023/04/05 12:08:13;;;;;;;;;;;11.20;90.00;;;;;;5092885;28;19915;-74
2023/04/05 12:10:39;;;;;;;;;;;11.20;88.70;;;;;;5094230;28;19916;-74
2023/04/05 12:13:04;;;;;;;;;;;11.20;89.00;;;;;;5093666;28;20354;-74
2023/04/05 12:15:30;;;;;;;;;;;11.10;89.80;;;;;;5093568;28;20328;-73
2023/04/05 12:17:56;;;;;;;;;;;11.20;89.00;;;;;;5094868;28;19915;-75
2023/04/05 12:20:23;;;;;;;;;;;11.20;89.50;;;;;;5094651;28;19955;-75
2023/04/05 12:22:51;;;;;;;;;;;11.30;89.80;;;;;;5092424;28;19912;-74
2023/04/05 12:25:19;;;;;;;;;;;11.30;90.00;;;;;;5091352;28;20486;-74
2023/04/05 12:27:45;;;;;;;;;;;11.30;90.00;;;;;;5092840;28;20255;-74
2023/04/05 12:30:13;;;;;;;;;;;11.30;89.30;;;;;;5093691;28;19937;-74
2023/04/05 12:32:45;;;;;;;;;;;11.30;88.40;;;;;;5093111;28;19908;-73
2023/04/05 12:35:15;;;;;;;;;;;11.30;87.90;;;;;;5091576;28;19908;-75
2023/04/05 12:37:41;;;;;;;;;;;11.50;90.10;;;;;;5090536;28;19914;-73
2023/04/05 12:40:07;;;;;;;;;;;11.50;90.00;;;;;;5091573;28;19912;-73
2023/04/05 12:42:37;;;;;;;;;;;11.60;89.30;;;;;;5091923;28;19912;-73
2023/04/05 12:45:04;;;;;;;;;;;11.60;89.60;;;;;;5089975;28;19952;-72
2023/04/05 12:47:31;;;;;;;;;;;11.60;89.20;;;;;;5090733;28;20286;-73
2023/04/05 12:49:57;;;;;;;;;;;11.60;86.80;;;;;;5090282;28;19909;-72
2023/04/05 12:52:25;;;;;;;;;;;11.60;88.00;;;;;;5091270;28;20313;-74
2023/04/05 12:54:54;;;;;;;;;;;11.60;88.50;;;;;;5089621;28;19908;-72
2023/04/05 12:57:30;;;;;;;;;;;11.70;89.10;;;;;;5090471;28;19908;-73
2023/04/05 12:59:55;;;;;;;;;;;11.80;88.60;;;;;;5090295;28;20377;-73
2023/04/05 13:02:21;;;;;;;;;;;11.70;89.10;;;;;;5091619;28;19910;-72
2023/04/05 13:04:47;;;;;;;;;;;11.70;89.70;;;;;;5090416;28;19916;-73
2023/04/05 13:07:13;;;;;;;;;;;11.90;90.20;;;;;;5091774;28;19995;-74
2023/04/05 13:09:38;;;;;;;;;;;12.00;90.00;;;;;;5094249;28;20300;-74
2023/04/05 13:12:04;;;;;;;;;;;12.10;90.10;;;;;;5093161;28;19939;-75
2023/04/05 13:14:30;;;;;;;;;;;12.10;89.40;;;;;;5095254;28;20021;-76
2023/04/05 13:16:55;;;;;;;;;;;12.20;89.00;;;;;;5093433;28;19951;-76
2023/04/05 13:19:21;;;;;;;;;;;12.30;89.20;;;;;;5097140;28;19938;-76
2023/04/05 13:21:47;;;;;;;;;;;12.30;88.00;;;;;;5095297;28;20323;-74
2023/04/05 13:24:13;;;;;;;;;;;12.20;87.30;;;;;;5093823;28;19959;-74
2023/04/05 13:26:38;;;;;;;;;;;12.20;87.80;;;;;;5093263;28;19912;-74
2023/04/05 13:29:04;;;;;;;;;;;12.20;87.50;;;;;;5098987;28;19908;-75
2023/04/05 13:31:32;;;;;;;;;;;12.00;86.40;;;;;;5097137;28;20282;-75
2023/04/05 13:33:57;;;;;;;;;;;12.00;89.10;;;;;;5097598;28;19943;-75
2023/04/05 13:36:23;;;;;;;;;;;12.00;87.40;;;;;;5098228;28;19961;-75
2023/04/05 13:38:49;;;;;;;;;;;11.90;87.50;;;;;;5098527;28;20334;-74
2023/04/05 13:41:14;;;;;;;;;;;11.90;87.10;;;;;;5098091;28;19908;-74
2023/04/05 13:43:40;;;;;;;;;;;12.00;86.60;;;;;;5097943;28;20286;-77
2023/04/05 13:46:06;;;;;;;;;;;12.00;87.40;;;;;;5096455;28;19930;-75
2023/04/05 13:48:31;;;;;;;;;;;12.10;87.50;;;;;;5098468;28;20021;-75
2023/04/05 13:50:57;;;;;;;;;;;12.10;87.10;;;;;;5096739;28;20350;-74
2023/04/05 13:53:23;;;;;;;;;;;12.10;86.40;;;;;;5097506;28;20014;-75
2023/04/05 13:55:49;;;;;;;;;;;12.00;86.30;;;;;;5095976;28;19924;-76
2023/04/05 13:58:15;;;;;;;;;;;12.00;86.90;;;;;;5099162;28;19919;-75
2023/04/05 14:00:40;;;;;;;;;;;11.90;86.50;;;;;;5097077;28;20293;-75
2023/04/05 14:03:06;;;;;;;;;;;12.00;86.70;;;;;;5096731;28;19962;-75
2023/04/05 14:05:32;;;;;;;;;;;12.00;84.80;;;;;;5095235;28;19912;-75
2023/04/05 14:07:57;;;;;;;;;;;12.00;85.80;;;;;;5097278;28;19912;-73
2023/04/05 14:10:23;;;;;;;;;;;12.00;84.70;;;;;;5097076;28;19946;-77
2023/04/05 14:12:49;;;;;;;;;;;12.00;84.20;;;;;;5096974;28;19912;-75
2023/04/05 14:15:15;;;;;;;;;;;12.10;85.80;;;;;;5096488;28;20318;-75
2023/04/05 14:17:40;;;;;;;;;;;12.20;85.60;;;;;;5096810;28;19931;-75
2023/04/05 14:20:06;;;;;;;;;;;12.20;84.50;;;;;;5095217;28;19908;-75
2023/04/05 14:22:32;;;;;;;;;;;12.20;84.30;;;;;;5095546;28;19972;-74
2023/04/05 14:24:58;;;;;;;;;;;12.20;83.10;;;;;;5095044;28;19965;-74